sensor_id;sensor_type;location;lat;lon;timestamp;pressure;altitude;pressure_sealevel;temperature;humidity
42887;BME280;29032;56.028;92.904;2023-10-31T00:00:03;99576.13;;;-1.32;50.13
42887;BME280;29032;56.028;92.904;2023-10-31T00:05:06;99581.13;;;-1.17;49.54
42887;BME280;29032;56.028;92.904;2023-10-31T00:10:13;99582.44;;;-1.09;49.81
42887;BME280;29032;56.028;92.904;2023-10-31T00:15:15;99584.31;;;-1.19;49.45
42887;BME280;29032;56.028;92.904;2023-10-31T00:20:17;99591.38;;;-1.21;49.50
42887;BME280;29032;56.028;92.904;2023-10-31T00:25:21;99592.47;;;-1.06;49.54
42887;BME280;29032;56.028;92.904;2023-10-31T00:30:23;99585.91;;;-0.96;49.16
42887;BME280;29032;56.028;92.904;2023-10-31T00:35:25;99589.53;;;-1.12;47.92
42887;BME280;29032;56.028;92.904;2023-10-31T00:40:29;99590.06;;;-1.30;48.84
42887;BME280;29032;56.028;92.904;2023-10-31T00:45:32;99592.25;;;-1.24;49.24
42887;BME280;29032;56.028;92.904;2023-10-31T00:50:34;99581.25;;;-1.34;49.30
42887;BME280;29032;56.028;92.904;2023-10-31T00:55:38;99589.53;;;-1.24;49.26
42887;BME280;29032;56.028;92.904;2023-10-31T01:00:40;99583.09;;;-1.31;49.13
42887;BME280;29032;56.028;92.904;2023-10-31T01:05:42;99596.28;;;-1.29;49.31
42887;BME280;29032;56.028;92.904;2023-10-31T01:10:46;99603.59;;;-1.13;48.93
42887;BME280;29032;56.028;92.904;2023-10-31T01:15:48;99607.28;;;-1.33;48.66
42887;BME280;29032;56.028;92.904;2023-10-31T01:20:51;99596.94;;;-1.25;48.66
42887;BME280;29032;56.028;92.904;2023-10-31T01:25:55;99605.31;;;-1.19;48.35
42887;BME280;29032;56.028;92.904;2023-10-31T01:30:57;99597.25;;;-1.36;47.67
42887;BME280;29032;56.028;92.904;2023-10-31T01:35:59;99606.59;;;-1.62;48.00
42887;BME280;29032;56.028;92.904;2023-10-31T01:41:03;99590.78;;;-1.80;48.18
42887;BME280;29032;56.028;92.904;2023-10-31T01:46:06;99593.16;;;-1.95;48.71
42887;BME280;29032;56.028;92.904;2023-10-31T01:51:09;99592.81;;;-1.97;48.61
42887;BME280;29032;56.028;92.904;2023-10-31T01:56:13;99586.97;;;-1.83;48.55
42887;BME280;29032;56.028;92.904;2023-10-31T02:01:15;99593.63;;;-1.71;47.33
42887;BME280;29032;56.028;92.904;2023-10-31T02:06:17;99585.69;;;-1.65;47.43
42887;BME280;29032;56.028;92.904;2023-10-31T02:11:23;99583.88;;;-1.56;46.81
42887;BME280;29032;56.028;92.904;2023-10-31T02:16:26;99583.09;;;-1.56;46.78
42887;BME280;29032;56.028;92.904;2023-10-31T02:21:29;99582.91;;;-1.49;47.21
42887;BME280;29032;56.028;92.904;2023-10-31T02:26:34;99589.22;;;-1.26;46.49
42887;BME280;29032;56.028;92.904;2023-10-31T02:31:36;99586.59;;;-1.17;46.48
42887;BME280;29032;56.028;92.904;2023-10-31T02:36:39;99581.88;;;-1.04;45.52
42887;BME280;29032;56.028;92.904;2023-10-31T02:41:42;99587.44;;;-0.95;46.20
42887;BME280;29032;56.028;92.904;2023-10-31T02:46:44;99574.78;;;-0.89;45.77
42887;BME280;29032;56.028;92.904;2023-10-31T02:51:46;99584.03;;;-0.86;45.24
42887;BME280;29032;56.028;92.904;2023-10-31T02:56:50;99579.03;;;-1.01;45.43
42887;BME280;29032;56.028;92.904;2023-10-31T03:01:52;99571.53;;;-1.09;45.70
42887;BME280;29032;56.028;92.904;2023-10-31T03:06:55;99570.22;;;-0.92;45.61
42887;BME280;29032;56.028;92.904;2023-10-31T03:11:58;99581.28;;;-0.74;45.42
42887;BME280;29032;56.028;92.904;2023-10-31T03:17:00;99581.69;;;-0.62;44.66
42887;BME280;29032;56.028;92.904;2023-10-31T03:22:02;99569.66;;;-0.52;44.91
42887;BME280;29032;56.028;92.904;2023-10-31T03:27:06;99568.47;;;-0.51;44.76
42887;BME280;29032;56.028;92.904;2023-10-31T03:32:08;99571.19;;;-0.51;44.34
42887;BME280;29032;56.028;92.904;2023-10-31T03:37:10;99552.34;;;-0.58;44.83
42887;BME280;29032;56.028;92.904;2023-10-31T03:42:14;99550.22;;;-0.76;45.07
42887;BME280;29032;56.028;92.904;2023-10-31T03:47:16;99548.84;;;-0.93;45.49
42887;BME280;29032;56.028;92.904;2023-10-31T03:52:18;99549.84;;;-0.65;45.53
42887;BME280;29032;56.028;92.904;2023-10-31T03:57:21;99540.38;;;-0.39;45.04
42887;BME280;29032;56.028;92.904;2023-10-31T04:02:23;99535.59;;;-0.35;45.13
42887;BME280;29032;56.028;92.904;2023-10-31T04:07:25;99530.19;;;-0.26;45.08
42887;BME280;29032;56.028;92.904;2023-10-31T04:12:29;99527.25;;;-0.09;44.50
42887;BME280;29032;56.028;92.904;2023-10-31T04:17:31;99530.31;;;-0.07;44.23
42887;BME280;29032;56.028;92.904;2023-10-31T04:22:33;99528.19;;;-0.03;44.55
42887;BME280;29032;56.028;92.904;2023-10-31T04:27:36;99511.50;;;0.17;44.06
42887;BME280;29032;56.028;92.904;2023-10-31T04:32:38;99517.41;;;0.15;43.89
42887;BME280;29032;56.028;92.904;2023-10-31T04:37:40;99516.53;;;-0.04;44.00
42887;BME280;29032;56.028;92.904;2023-10-31T04:42:46;99516.16;;;0.07;44.39
42887;BME280;29032;56.028;92.904;2023-10-31T04:47:48;99521.34;;;0.14;43.55
42887;BME280;29032;56.028;92.904;2023-10-31T04:52:50;99507.72;;;0.23;43.90
42887;BME280;29032;56.028;92.904;2023-10-31T04:57:54;99509.00;;;0.41;43.81
42887;BME280;29032;56.028;92.904;2023-10-31T05:02:56;99515.13;;;0.54;43.70
42887;BME280;29032;56.028;92.904;2023-10-31T05:07:58;99500.91;;;0.68;43.29
42887;BME280;29032;56.028;92.904;2023-10-31T05:13:02;99502.47;;;0.78;43.03
42887;BME280;29032;56.028;92.904;2023-10-31T05:18:04;99502.63;;;0.93;43.28
42887;BME280;29032;56.028;92.904;2023-10-31T05:23:06;99513.13;;;1.04;42.22
42887;BME280;29032;56.028;92.904;2023-10-31T05:28:09;99506.16;;;1.30;42.35
42887;BME280;29032;56.028;92.904;2023-10-31T05:33:14;99504.81;;;1.35;41.44
42887;BME280;29032;56.028;92.904;2023-10-31T05:38:16;99501.59;;;1.64;41.32
42887;BME280;29032;56.028;92.904;2023-10-31T05:43:19;99497.28;;;1.81;40.85
42887;BME280;29032;56.028;92.904;2023-10-31T05:48:21;99489.59;;;1.52;40.68
42887;BME280;29032;56.028;92.904;2023-10-31T05:53:23;99478.50;;;1.46;41.14
42887;BME280;29032;56.028;92.904;2023-10-31T05:58:27;99477.59;;;1.50;40.73
42887;BME280;29032;56.028;92.904;2023-10-31T06:03:29;99467.25;;;1.54;41.23
42887;BME280;29032;56.028;92.904;2023-10-31T06:08:31;99463.00;;;1.53;41.50
42887;BME280;29032;56.028;92.904;2023-10-31T06:13:34;99457.22;;;1.69;41.10
42887;BME280;29032;56.028;92.904;2023-10-31T06:18:38;99435.59;;;1.80;40.67
42887;BME280;29032;56.028;92.904;2023-10-31T06:23:40;99419.66;;;1.69;40.55
42887;BME280;29032;56.028;92.904;2023-10-31T06:28:44;99414.91;;;1.79;40.15
42887;BME280;29032;56.028;92.904;2023-10-31T06:33:46;99411.19;;;2.00;40.20
42887;BME280;29032;56.028;92.904;2023-10-31T06:38:48;99405.66;;;2.19;39.08
42887;BME280;29032;56.028;92.904;2023-10-31T06:43:51;99394.28;;;2.11;38.31
42887;BME280;29032;56.028;92.904;2023-10-31T06:48:53;99385.00;;;2.09;38.88
42887;BME280;29032;56.028;92.904;2023-10-31T06:53:55;99368.66;;;2.23;38.53
42887;BME280;29032;56.028;92.904;2023-10-31T06:58:59;99362.53;;;2.28;38.39
42887;BME280;29032;56.028;92.904;2023-10-31T07:04:01;99368.47;;;2.51;36.98
42887;BME280;29032;56.028;92.904;2023-10-31T07:09:03;99360.53;;;2.77;36.41
42887;BME280;29032;56.028;92.904;2023-10-31T07:14:06;99354.69;;;2.84;35.91
42887;BME280;29032;56.028;92.904;2023-10-31T07:19:08;99351.38;;;2.80;35.65
42887;BME280;29032;56.028;92.904;2023-10-31T07:24:10;99364.91;;;2.83;36.51
42887;BME280;29032;56.028;92.904;2023-10-31T07:29:14;99363.22;;;3.01;34.35
42887;BME280;29032;56.028;92.904;2023-10-31T07:34:16;99357.19;;;3.11;34.76
42887;BME280;29032;56.028;92.904;2023-10-31T07:39:18;99351.50;;;3.15;34.48
42887;BME280;29032;56.028;92.904;2023-10-31T07:44:21;99342.69;;;2.81;34.68
42887;BME280;29032;56.028;92.904;2023-10-31T07:49:23;99344.38;;;2.79;34.69
42887;BME280;29032;56.028;92.904;2023-10-31T07:54:25;99335.81;;;3.01;33.52
42887;BME280;29032;56.028;92.904;2023-10-31T07:59:29;99326.28;;;3.26;34.50
42887;BME280;29032;56.028;92.904;2023-10-31T08:04:31;99322.91;;;3.81;33.46
42887;BME280;29032;56.028;92.904;2023-10-31T08:09:33;99325.25;;;3.38;33.04
42887;BME280;29032;56.028;92.904;2023-10-31T08:14:37;99312.63;;;2.87;33.75
42887;BME280;29032;56.028;92.904;2023-10-31T08:19:39;99318.78;;;2.43;34.20
42887;BME280;29032;56.028;92.904;2023-10-31T08:24:41;99298.88;;;2.19;34.06
42887;BME280;29032;56.028;92.904;2023-10-31T08:29:45;99297.66;;;2.20;34.85
42887;BME280;29032;56.028;92.904;2023-10-31T08:34:47;99297.81;;;1.92;36.82
42887;BME280;29032;56.028;92.904;2023-10-31T08:39:49;99302.06;;;1.93;37.67
42887;BME280;29032;56.028;92.904;2023-10-31T08:44:52;99303.16;;;1.87;35.45
42887;BME280;29032;56.028;92.904;2023-10-31T08:49:54;99287.44;;;1.72;36.38
42887;BME280;29032;56.028;92.904;2023-10-31T08:54:56;99284.22;;;1.74;36.02
42887;BME280;29032;56.028;92.904;2023-10-31T09:00:00;99287.34;;;1.58;36.23
42887;BME280;29032;56.028;92.904;2023-10-31T09:05:02;99292.19;;;1.63;36.57
42887;BME280;29032;56.028;92.904;2023-10-31T09:10:05;99294.25;;;1.77;36.48
42887;BME280;29032;56.028;92.904;2023-10-31T09:15:09;99292.34;;;1.92;35.61
42887;BME280;29032;56.028;92.904;2023-10-31T09:20:11;99302.75;;;1.79;35.76
42887;BME280;29032;56.028;92.904;2023-10-31T09:25:13;99308.22;;;1.79;36.29
42887;BME280;29032;56.028;92.904;2023-10-31T09:30:17;99321.00;;;1.82;35.39
42887;BME280;29032;56.028;92.904;2023-10-31T09:35:19;99319.38;;;1.66;36.26
42887;BME280;29032;56.028;92.904;2023-10-31T09:40:22;99317.75;;;1.51;36.21
42887;BME280;29032;56.028;92.904;2023-10-31T09:45:25;99314.97;;;1.60;36.29
42887;BME280;29032;56.028;92.904;2023-10-31T09:50:28;99312.19;;;1.78;36.44
42887;BME280;29032;56.028;92.904;2023-10-31T09:55:31;99302.75;;;1.79;36.43
42887;BME280;29032;56.028;92.904;2023-10-31T10:00:35;99313.63;;;1.88;35.94
42887;BME280;29032;56.028;92.904;2023-10-31T10:05:39;99311.00;;;1.70;36.27
42887;BME280;29032;56.028;92.904;2023-10-31T10:10:42;99305.53;;;1.70;36.46
42887;BME280;29032;56.028;92.904;2023-10-31T10:15:46;99287.69;;;1.84;36.42
42887;BME280;29032;56.028;92.904;2023-10-31T10:20:55;99280.53;;;1.86;36.34
42887;BME280;29032;56.028;92.904;2023-10-31T10:25:58;99263.19;;;1.56;36.22
42887;BME280;29032;56.028;92.904;2023-10-31T10:31:02;99274.06;;;1.41;36.29
42887;BME280;29032;56.028;92.904;2023-10-31T10:36:05;99274.81;;;1.42;36.95
42887;BME280;29032;56.028;92.904;2023-10-31T10:41:09;99285.31;;;1.34;37.31
42887;BME280;29032;56.028;92.904;2023-10-31T10:46:15;99307.53;;;1.18;36.71
42887;BME280;29032;56.028;92.904;2023-10-31T10:51:24;99312.56;;;1.10;37.51
42887;BME280;29032;56.028;92.904;2023-10-31T10:56:37;99316.94;;;1.17;37.45
42887;BME280;29032;56.028;92.904;2023-10-31T11:01:41;99313.56;;;1.31;37.30
42887;BME280;29032;56.028;92.904;2023-10-31T11:06:44;99317.38;;;1.34;36.70
42887;BME280;29032;56.028;92.904;2023-10-31T11:11:47;99330.59;;;1.17;37.28
42887;BME280;29032;56.028;92.904;2023-10-31T11:16:52;99326.41;;;0.88;38.00
42887;BME280;29032;56.028;92.904;2023-10-31T11:21:58;99330.22;;;0.63;37.95
42887;BME280;29032;56.028;92.904;2023-10-31T11:27:01;99321.88;;;0.49;38.38
42887;BME280;29032;56.028;92.904;2023-10-31T11:32:08;99314.59;;;0.36;38.72
42887;BME280;29032;56.028;92.904;2023-10-31T11:37:23;99322.94;;;0.60;38.66
42887;BME280;29032;56.028;92.904;2023-10-31T11:42:25;99322.78;;;0.64;38.42
42887;BME280;29032;56.028;92.904;2023-10-31T11:47:45;99318.53;;;0.72;38.46
42887;BME280;29032;56.028;92.904;2023-10-31T11:52:59;99310.50;;;0.78;38.65
42887;BME280;29032;56.028;92.904;2023-10-31T11:58:16;99302.41;;;1.02;38.46
42887;BME280;29032;56.028;92.904;2023-10-31T12:03:20;99302.44;;;0.92;37.85
42887;BME280;29032;56.028;92.904;2023-10-31T12:08:27;99306.25;;;0.49;38.71
42887;BME280;29032;56.028;92.904;2023-10-31T12:13:29;99308.22;;;0.30;39.10
42887;BME280;29032;56.028;92.904;2023-10-31T12:18:33;99307.28;;;0.33;39.44
42887;BME280;29032;56.028;92.904;2023-10-31T12:23:35;99297.59;;;0.14;39.62
42887;BME280;29032;56.028;92.904;2023-10-31T12:28:37;99314.25;;;0.16;39.82
42887;BME280;29032;56.028;92.904;2023-10-31T12:33:41;99312.44;;;0.13;39.68
42887;BME280;29032;56.028;92.904;2023-10-31T12:38:43;99319.72;;;0.07;40.08
42887;BME280;29032;56.028;92.904;2023-10-31T12:43:45;99323.66;;;0.06;39.81
42887;BME280;29032;56.028;92.904;2023-10-31T12:48:49;99325.47;;;0.18;40.14
42887;BME280;29032;56.028;92.904;2023-10-31T12:53:51;99327.56;;;0.05;40.32
42887;BME280;29032;56.028;92.904;2023-10-31T12:58:57;99316.69;;;0.14;40.57
42887;BME280;29032;56.028;92.904;2023-10-31T13:04:01;99322.56;;;0.13;40.96
42887;BME280;29032;56.028;92.904;2023-10-31T13:09:03;99315.47;;;0.15;40.94
42887;BME280;29032;56.028;92.904;2023-10-31T13:14:06;99317.75;;;0.26;41.05
42887;BME280;29032;56.028;92.904;2023-10-31T13:19:09;99317.59;;;0.20;40.94
42887;BME280;29032;56.028;92.904;2023-10-31T13:24:11;99314.50;;;-0.09;41.72
42887;BME280;29032;56.028;92.904;2023-10-31T13:29:13;99316.00;;;-0.18;41.99
42887;BME280;29032;56.028;92.904;2023-10-31T13:34:17;99322.44;;;0.16;41.16
42887;BME280;29032;56.028;92.904;2023-10-31T13:39:19;99332.16;;;0.17;41.43
42887;BME280;29032;56.028;92.904;2023-10-31T13:44:21;99339.97;;;-0.03;41.40
42887;BME280;29032;56.028;92.904;2023-10-31T13:49:25;99337.78;;;-0.27;42.17
42887;BME280;29032;56.028;92.904;2023-10-31T13:54:27;99337.28;;;-0.43;41.89
42887;BME280;29032;56.028;92.904;2023-10-31T13:59:29;99347.94;;;-0.58;41.44
42887;BME280;29032;56.028;92.904;2023-10-31T14:04:32;99353.72;;;-0.56;42.17
42887;BME280;29032;56.028;92.904;2023-10-31T14:09:34;99358.91;;;-0.49;41.77
42887;BME280;29032;56.028;92.904;2023-10-31T14:14:37;99360.59;;;-0.42;41.43
42887;BME280;29032;56.028;92.904;2023-10-31T14:19:40;99358.81;;;-0.36;41.60
42887;BME280;29032;56.028;92.904;2023-10-31T14:24:42;99359.59;;;-0.27;41.18
42887;BME280;29032;56.028;92.904;2023-10-31T14:29:44;99367.72;;;-0.05;40.86
42887;BME280;29032;56.028;92.904;2023-10-31T14:34:48;99362.88;;;-0.01;40.90
42887;BME280;29032;56.028;92.904;2023-10-31T14:39:50;99372.81;;;-0.16;41.13
42887;BME280;29032;56.028;92.904;2023-10-31T14:44:52;99369.66;;;-0.14;40.69
42887;BME280;29032;56.028;92.904;2023-10-31T14:49:56;99371.44;;;-0.21;40.93
42887;BME280;29032;56.028;92.904;2023-10-31T14:54:58;99378.91;;;-0.12;40.91
42887;BME280;29032;56.028;92.904;2023-10-31T15:00:00;99372.75;;;0.06;40.75
42887;BME280;29032;56.028;92.904;2023-10-31T15:05:04;99368.53;;;0.14;40.29
42887;BME280;29032;56.028;92.904;2023-10-31T15:10:06;99369.88;;;0.09;40.67
42887;BME280;29032;56.028;92.904;2023-10-31T15:15:09;99372.25;;;-0.02;40.46
42887;BME280;29032;56.028;92.904;2023-10-31T15:20:13;99372.47;;;0.13;39.92
42887;BME280;29032;56.028;92.904;2023-10-31T15:25:15;99370.59;;;-0.08;40.52
42887;BME280;29032;56.028;92.904;2023-10-31T15:30:18;99371.44;;;-0.21;40.33
42887;BME280;29032;56.028;92.904;2023-10-31T15:35:21;99373.25;;;-0.18;40.36
42887;BME280;29032;56.028;92.904;2023-10-31T15:40:24;99363.06;;;-0.35;40.88
42887;BME280;29032;56.028;92.904;2023-10-31T15:45:26;99369.84;;;-0.40;40.91
42887;BME280;29032;56.028;92.904;2023-10-31T15:50:29;99372.16;;;-0.29;40.60
42887;BME280;29032;56.028;92.904;2023-10-31T15:55:31;99366.88;;;-0.24;40.28
42887;BME280;29032;56.028;92.904;2023-10-31T16:00:33;99363.25;;;-0.21;40.46
42887;BME280;29032;56.028;92.904;2023-10-31T16:05:37;99372.75;;;-0.34;40.74
42887;BME280;29032;56.028;92.904;2023-10-31T16:10:39;99366.59;;;-0.57;41.02
42887;BME280;29032;56.028;92.904;2023-10-31T16:15:41;99373.41;;;-0.52;40.87
42887;BME280;29032;56.028;92.904;2023-10-31T16:20:45;99375.75;;;-0.41;40.54
42887;BME280;29032;56.028;92.904;2023-10-31T16:25:47;99380.09;;;-0.44;40.81
42887;BME280;29032;56.028;92.904;2023-10-31T16:30:49;99385.41;;;-0.50;40.48
42887;BME280;29032;56.028;92.904;2023-10-31T16:35:53;99388.72;;;-0.46;40.76
42887;BME280;29032;56.028;92.904;2023-10-31T16:40:55;99383.31;;;-0.67;40.87
42887;BME280;29032;56.028;92.904;2023-10-31T16:45:57;99390.53;;;-0.74;41.08
42887;BME280;29032;56.028;92.904;2023-10-31T16:51:00;99393.06;;;-0.57;40.92
42887;BME280;29032;56.028;92.904;2023-10-31T16:56:03;99405.50;;;-0.56;40.52
42887;BME280;29032;56.028;92.904;2023-10-31T17:01:05;99406.19;;;-0.43;40.86
42887;BME280;29032;56.028;92.904;2023-10-31T17:06:09;99415.25;;;-0.46;40.91
42887;BME280;29032;56.028;92.904;2023-10-31T17:11:11;99409.69;;;-0.64;40.84
42887;BME280;29032;56.028;92.904;2023-10-31T17:16:13;99411.47;;;-0.92;41.11
42887;BME280;29032;56.028;92.904;2023-10-31T17:21:17;99419.13;;;-1.00;42.17
42887;BME280;29032;56.028;92.904;2023-10-31T17:26:19;99407.66;;;-0.95;41.48
42887;BME280;29032;56.028;92.904;2023-10-31T17:31:21;99418.94;;;-0.84;40.74
42887;BME280;29032;56.028;92.904;2023-10-31T17:36:24;99421.34;;;-0.64;40.50
42887;BME280;29032;56.028;92.904;2023-10-31T17:41:26;99422.16;;;-0.54;40.33
42887;BME280;29032;56.028;92.904;2023-10-31T17:46:29;99432.34;;;-0.46;40.25
42887;BME280;29032;56.028;92.904;2023-10-31T17:51:39;99432.22;;;-0.42;40.66
42887;BME280;29032;56.028;92.904;2023-10-31T17:56:41;99432.50;;;-0.49;40.03
42887;BME280;29032;56.028;92.904;2023-10-31T18:01:43;99437.44;;;-0.57;40.77
42887;BME280;29032;56.028;92.904;2023-10-31T18:06:47;99437.69;;;-0.42;40.79
42887;BME280;29032;56.028;92.904;2023-10-31T18:11:49;99441.22;;;-0.32;40.50
42887;BME280;29032;56.028;92.904;2023-10-31T18:16:51;99442.97;;;-0.17;40.61
42887;BME280;29032;56.028;92.904;2023-10-31T18:21:54;99447.13;;;-0.03;39.68
42887;BME280;29032;56.028;92.904;2023-10-31T18:26:56;99453.00;;;-0.13;39.66
42887;BME280;29032;56.028;92.904;2023-10-31T18:31:58;99445.91;;;-0.33;40.04
42887;BME280;29032;56.028;92.904;2023-10-31T18:37:02;99452.13;;;-0.32;40.04
42887;BME280;29032;56.028;92.904;2023-10-31T18:42:05;99459.59;;;-0.24;39.87
42887;BME280;29032;56.028;92.904;2023-10-31T18:47:07;99457.72;;;-0.36;40.29
42887;BME280;29032;56.028;92.904;2023-10-31T18:52:10;99458.91;;;-0.37;40.48
42887;BME280;29032;56.028;92.904;2023-10-31T18:57:13;99462.53;;;-0.40;40.16
42887;BME280;29032;56.028;92.904;2023-10-31T19:02:15;99463.78;;;-0.32;40.16
42887;BME280;29032;56.028;92.904;2023-10-31T19:07:18;99464.94;;;-0.42;40.36
42887;BME280;29032;56.028;92.904;2023-10-31T19:12:20;99462.03;;;-0.48;40.53
42887;BME280;29032;56.028;92.904;2023-10-31T19:17:22;99466.59;;;-0.45;40.34
42887;BME280;29032;56.028;92.904;2023-10-31T19:22:26;99472.53;;;-0.59;40.76
42887;BME280;29032;56.028;92.904;2023-10-31T19:27:28;99463.81;;;-0.54;40.81
42887;BME280;29032;56.028;92.904;2023-10-31T19:32:30;99475.59;;;-0.35;40.77
42887;BME280;29032;56.028;92.904;2023-10-31T19:37:34;99467.63;;;-0.29;40.44
42887;BME280;29032;56.028;92.904;2023-10-31T19:42:36;99471.63;;;-0.43;40.45
42887;BME280;29032;56.028;92.904;2023-10-31T19:47:38;99465.50;;;-0.47;40.44
42887;BME280;29032;56.028;92.904;2023-10-31T19:52:41;99477.75;;;-0.52;40.58
42887;BME280;29032;56.028;92.904;2023-10-31T19:57:43;99478.00;;;-0.59;40.79
42887;BME280;29032;56.028;92.904;2023-10-31T20:02:45;99488.97;;;-0.50;40.84
42887;BME280;29032;56.028;92.904;2023-10-31T20:07:50;99483.53;;;-0.28;40.18
42887;BME280;29032;56.028;92.904;2023-10-31T20:12:52;99486.50;;;-0.35;40.38
42887;BME280;29032;56.028;92.904;2023-10-31T20:17:54;99494.59;;;-0.44;41.61
42887;BME280;29032;56.028;92.904;2023-10-31T20:22:57;99498.78;;;-0.52;42.14
42887;BME280;29032;56.028;92.904;2023-10-31T20:28:00;99511.28;;;-0.42;41.79
42887;BME280;29032;56.028;92.904;2023-10-31T20:33:02;99506.81;;;-0.36;41.85
42887;BME280;29032;56.028;92.904;2023-10-31T20:38:05;99502.34;;;-0.42;41.92
42887;BME280;29032;56.028;92.904;2023-10-31T20:43:07;99501.19;;;-0.76;42.24
42887;BME280;29032;56.028;92.904;2023-10-31T20:48:09;99511.38;;;-0.89;41.95
42887;BME280;29032;56.028;92.904;2023-10-31T20:53:13;99515.59;;;-0.88;42.04
42887;BME280;29032;56.028;92.904;2023-10-31T20:58:15;99515.97;;;-0.99;42.26
42887;BME280;29032;56.028;92.904;2023-10-31T21:03:17;99525.13;;;-0.93;42.15
42887;BME280;29032;56.028;92.904;2023-10-31T21:08:21;99536.47;;;-0.73;42.06
42887;BME280;29032;56.028;92.904;2023-10-31T21:13:23;99536.47;;;-0.73;41.75
42887;BME280;29032;56.028;92.904;2023-10-31T21:18:25;99534.44;;;-0.81;42.57
42887;BME280;29032;56.028;92.904;2023-10-31T21:23:28;99535.28;;;-0.71;42.21
42887;BME280;29032;56.028;92.904;2023-10-31T21:28:30;99542.34;;;-0.61;42.10
42887;BME280;29032;56.028;92.904;2023-10-31T21:33:32;99543.00;;;-0.57;41.29
42887;BME280;29032;56.028;92.904;2023-10-31T21:38:36;99545.16;;;-0.65;41.64
42887;BME280;29032;56.028;92.904;2023-10-31T21:43:38;99554.25;;;-0.68;41.53
42887;BME280;29032;56.028;92.904;2023-10-31T21:48:40;99554.44;;;-0.62;41.70
42887;BME280;29032;56.028;92.904;2023-10-31T21:53:43;99564.09;;;-0.49;40.88
42887;BME280;29032;56.028;92.904;2023-10-31T21:58:45;99568.94;;;-0.65;41.59
42887;BME280;29032;56.028;92.904;2023-10-31T22:03:47;99564.34;;;-0.56;41.75
42887;BME280;29032;56.028;92.904;2023-10-31T22:08:51;99561.09;;;-0.29;41.34
42887;BME280;29032;56.028;92.904;2023-10-31T22:13:53;99571.03;;;-0.35;41.28
42887;BME280;29032;56.028;92.904;2023-10-31T22:18:59;99592.13;;;-0.48;41.53
42887;BME280;29032;56.028;92.904;2023-10-31T22:24:03;99605.53;;;-0.54;42.06
42887;BME280;29032;56.028;92.904;2023-10-31T22:29:07;99611.13;;;-0.57;41.90
42887;BME280;29032;56.028;92.904;2023-10-31T22:34:09;99605.19;;;-0.43;41.69
42887;BME280;29032;56.028;92.904;2023-10-31T22:39:13;99615.63;;;-0.29;41.47
42887;BME280;29032;56.028;92.904;2023-10-31T22:44:15;99620.56;;;-0.36;41.36
42887;BME280;29032;56.028;92.904;2023-10-31T22:49:17;99625.34;;;-0.40;41.20
42887;BME280;29032;56.028;92.904;2023-10-31T22:54:20;99632.25;;;-0.49;41.22
42887;BME280;29032;56.028;92.904;2023-10-31T22:59:22;99634.47;;;-0.56;41.54
42887;BME280;29032;56.028;92.904;2023-10-31T23:04:24;99639.41;;;-0.89;41.13
42887;BME280;29032;56.028;92.904;2023-10-31T23:09:28;99651.84;;;-1.14;41.98
42887;BME280;29032;56.028;92.904;2023-10-31T23:14:30;99659.31;;;-1.31;42.03
42887;BME280;29032;56.028;92.904;2023-10-31T23:19:32;99660.88;;;-1.17;42.67
42887;BME280;29032;56.028;92.904;2023-10-31T23:24:35;99664.78;;;-0.80;42.36
42887;BME280;29032;56.028;92.904;2023-10-31T23:29:37;99666.50;;;-0.60;41.33
42887;BME280;29032;56.028;92.904;2023-10-31T23:34:39;99677.75;;;-0.84;41.74
42887;BME280;29032;56.028;92.904;2023-10-31T23:39:43;99689.53;;;-0.87;41.46
42887;BME280;29032;56.028;92.904;2023-10-31T23:44:45;99695.28;;;-1.10;41.75
42887;BME280;29032;56.028;92.904;2023-10-31T23:49:47;99704.66;;;-1.11;42.47
42887;BME280;29032;56.028;92.904;2023-10-31T23:54:50;99697.91;;;-0.94;41.45
42887;BME280;29032;56.028;92.904;2023-10-31T23:59:52;99694.78;;;-0.92;41.61
